sensor_id;sensor_type;location;lat;lon;timestamp;P1;durP1;ratioP1;P2;durP2;ratioP2
11984;SDS011;6052;53.246;10.368;2023-08-12T00:00:43;1.70;;;1.48;;
11984;SDS011;6052;53.246;10.368;2023-08-12T00:03:13;1.63;;;1.42;;
11984;SDS011;6052;53.246;10.368;2023-08-12T00:05:42;1.60;;;1.50;;
11984;SDS011;6052;53.246;10.368;2023-08-12T00:08:12;1.65;;;1.40;;
11984;SDS011;6052;53.246;10.368;2023-08-12T00:10:41;1.50;;;1.30;;
11984;SDS011;6052;53.246;10.368;2023-08-12T00:13:11;1.67;;;1.58;;
11984;SDS011;6052;53.246;10.368;2023-08-12T00:15:46;1.95;;;1.50;;
11984;SDS011;6052;53.246;10.368;2023-08-12T00:18:16;1.63;;;1.20;;
11984;SDS011;6052;53.246;10.368;2023-08-12T00:20:46;3.83;;;1.60;;
11984;SDS011;6052;53.246;10.368;2023-08-12T00:23:15;1.88;;;1.50;;
11984;SDS011;6052;53.246;10.368;2023-08-12T00:25:45;1.75;;;1.50;;
11984;SDS011;6052;53.246;10.368;2023-08-12T00:28:14;1.88;;;1.40;;
11984;SDS011;6052;53.246;10.368;2023-08-12T00:30:47;2.13;;;1.75;;
11984;SDS011;6052;53.246;10.368;2023-08-12T00:33:17;1.50;;;1.30;;
11984;SDS011;6052;53.246;10.368;2023-08-12T00:35:47;2.72;;;2.40;;
11984;SDS011;6052;53.246;10.368;2023-08-12T00:38:16;1.90;;;1.30;;
11984;SDS011;6052;53.246;10.368;2023-08-12T00:40:46;4.30;;;1.80;;
11984;SDS011;6052;53.246;10.368;2023-08-12T00:43:15;3.70;;;1.40;;
11984;SDS011;6052;53.246;10.368;2023-08-12T00:45:47;1.70;;;1.60;;
11984;SDS011;6052;53.246;10.368;2023-08-12T00:48:17;1.50;;;1.40;;
11984;SDS011;6052;53.246;10.368;2023-08-12T00:50:47;3.42;;;1.60;;
11984;SDS011;6052;53.246;10.368;2023-08-12T00:53:16;3.65;;;1.60;;
11984;SDS011;6052;53.246;10.368;2023-08-12T00:55:46;1.52;;;1.25;;
11984;SDS011;6052;53.246;10.368;2023-08-12T00:58:15;2.78;;;1.67;;
11984;SDS011;6052;53.246;10.368;2023-08-12T01:00:48;3.17;;;1.50;;
11984;SDS011;6052;53.246;10.368;2023-08-12T01:03:18;2.80;;;1.70;;
11984;SDS011;6052;53.246;10.368;2023-08-12T01:05:48;2.28;;;1.63;;
11984;SDS011;6052;53.246;10.368;2023-08-12T01:08:18;2.55;;;1.35;;
11984;SDS011;6052;53.246;10.368;2023-08-12T01:10:49;1.90;;;1.65;;
11984;SDS011;6052;53.246;10.368;2023-08-12T01:13:26;1.80;;;1.50;;
11984;SDS011;6052;53.246;10.368;2023-08-12T01:16:04;4.13;;;1.80;;
11984;SDS011;6052;53.246;10.368;2023-08-12T01:18:36;2.28;;;1.40;;
11984;SDS011;6052;53.246;10.368;2023-08-12T01:21:07;3.70;;;1.60;;
11984;SDS011;6052;53.246;10.368;2023-08-12T01:23:43;2.15;;;1.60;;
11984;SDS011;6052;53.246;10.368;2023-08-12T01:26:13;5.35;;;1.67;;
11984;SDS011;6052;53.246;10.368;2023-08-12T01:28:43;1.40;;;1.30;;
11984;SDS011;6052;53.246;10.368;2023-08-12T01:31:14;1.50;;;1.40;;
11984;SDS011;6052;53.246;10.368;2023-08-12T01:33:49;3.00;;;1.40;;
11984;SDS011;6052;53.246;10.368;2023-08-12T01:36:24;2.17;;;1.40;;
11984;SDS011;6052;53.246;10.368;2023-08-12T01:38:59;1.95;;;1.35;;
11984;SDS011;6052;53.246;10.368;2023-08-12T01:41:31;1.48;;;1.38;;
11984;SDS011;6052;53.246;10.368;2023-08-12T01:44:00;1.95;;;1.60;;
11984;SDS011;6052;53.246;10.368;2023-08-12T01:46:31;3.38;;;1.65;;
11984;SDS011;6052;53.246;10.368;2023-08-12T01:49:01;1.77;;;1.65;;
11984;SDS011;6052;53.246;10.368;2023-08-12T01:51:31;3.22;;;1.50;;
11984;SDS011;6052;53.246;10.368;2023-08-12T01:54:03;1.67;;;1.48;;
11984;SDS011;6052;53.246;10.368;2023-08-12T01:56:34;2.35;;;1.42;;
11984;SDS011;6052;53.246;10.368;2023-08-12T01:59:06;1.70;;;1.50;;
11984;SDS011;6052;53.246;10.368;2023-08-12T02:01:36;1.95;;;1.50;;
11984;SDS011;6052;53.246;10.368;2023-08-12T02:04:06;2.05;;;1.60;;
11984;SDS011;6052;53.246;10.368;2023-08-12T02:06:37;1.63;;;1.45;;
11984;SDS011;6052;53.246;10.368;2023-08-12T02:09:10;2.50;;;1.50;;
11984;SDS011;6052;53.246;10.368;2023-08-12T02:11:40;1.40;;;1.30;;
11984;SDS011;6052;53.246;10.368;2023-08-12T02:14:13;2.75;;;1.40;;
11984;SDS011;6052;53.246;10.368;2023-08-12T02:16:42;2.10;;;1.30;;
11984;SDS011;6052;53.246;10.368;2023-08-12T02:19:12;1.70;;;1.50;;
11984;SDS011;6052;53.246;10.368;2023-08-12T02:21:42;1.73;;;1.60;;
11984;SDS011;6052;53.246;10.368;2023-08-12T02:24:16;2.03;;;1.83;;
11984;SDS011;6052;53.246;10.368;2023-08-12T02:26:46;2.85;;;1.90;;
11984;SDS011;6052;53.246;10.368;2023-08-12T02:29:16;2.38;;;1.35;;
11984;SDS011;6052;53.246;10.368;2023-08-12T02:31:45;3.47;;;1.60;;
11984;SDS011;6052;53.246;10.368;2023-08-12T02:34:15;2.13;;;1.60;;
11984;SDS011;6052;53.246;10.368;2023-08-12T02:36:45;3.05;;;1.70;;
11984;SDS011;6052;53.246;10.368;2023-08-12T02:39:18;1.50;;;1.40;;
11984;SDS011;6052;53.246;10.368;2023-08-12T02:41:47;4.93;;;1.48;;
11984;SDS011;6052;53.246;10.368;2023-08-12T02:44:17;1.70;;;1.60;;
11984;SDS011;6052;53.246;10.368;2023-08-12T02:46:47;1.50;;;1.40;;
11984;SDS011;6052;53.246;10.368;2023-08-12T02:49:16;2.00;;;1.35;;
11984;SDS011;6052;53.246;10.368;2023-08-12T02:51:46;1.80;;;1.50;;
11984;SDS011;6052;53.246;10.368;2023-08-12T02:54:18;2.03;;;1.52;;
11984;SDS011;6052;53.246;10.368;2023-08-12T02:56:49;3.17;;;1.77;;
11984;SDS011;6052;53.246;10.368;2023-08-12T02:59:19;1.65;;;1.50;;
11984;SDS011;6052;53.246;10.368;2023-08-12T03:01:48;1.90;;;1.50;;
11984;SDS011;6052;53.246;10.368;2023-08-12T03:04:20;1.30;;;1.20;;
11984;SDS011;6052;53.246;10.368;2023-08-12T03:06:51;1.60;;;1.50;;
11984;SDS011;6052;53.246;10.368;2023-08-12T03:09:23;1.90;;;1.60;;
11984;SDS011;6052;53.246;10.368;2023-08-12T03:11:53;1.75;;;1.60;;
11984;SDS011;6052;53.246;10.368;2023-08-12T03:14:22;2.90;;;1.73;;
11984;SDS011;6052;53.246;10.368;2023-08-12T03:16:51;1.80;;;1.50;;
11984;SDS011;6052;53.246;10.368;2023-08-12T03:19:21;2.35;;;1.65;;
11984;SDS011;6052;53.246;10.368;2023-08-12T03:21:50;3.05;;;1.80;;
11984;SDS011;6052;53.246;10.368;2023-08-12T03:24:23;1.85;;;1.60;;
11984;SDS011;6052;53.246;10.368;2023-08-12T03:26:52;1.73;;;1.35;;
11984;SDS011;6052;53.246;10.368;2023-08-12T03:29:21;3.78;;;1.40;;
11984;SDS011;6052;53.246;10.368;2023-08-12T03:31:51;1.80;;;1.70;;
11984;SDS011;6052;53.246;10.368;2023-08-12T03:34:20;2.58;;;1.70;;
11984;SDS011;6052;53.246;10.368;2023-08-12T03:36:50;1.95;;;1.63;;
11984;SDS011;6052;53.246;10.368;2023-08-12T03:39:19;4.07;;;1.80;;
11984;SDS011;6052;53.246;10.368;2023-08-12T03:41:51;2.65;;;1.48;;
11984;SDS011;6052;53.246;10.368;2023-08-12T03:44:20;3.78;;;1.83;;
11984;SDS011;6052;53.246;10.368;2023-08-12T03:46:50;3.08;;;1.70;;
11984;SDS011;6052;53.246;10.368;2023-08-12T03:49:19;1.67;;;1.52;;
11984;SDS011;6052;53.246;10.368;2023-08-12T03:51:49;1.70;;;1.60;;
11984;SDS011;6052;53.246;10.368;2023-08-12T03:54:18;3.20;;;1.60;;
11984;SDS011;6052;53.246;10.368;2023-08-12T03:56:48;1.40;;;1.30;;
11984;SDS011;6052;53.246;10.368;2023-08-12T03:59:20;2.72;;;1.60;;
11984;SDS011;6052;53.246;10.368;2023-08-12T04:01:49;1.50;;;1.40;;
11984;SDS011;6052;53.246;10.368;2023-08-12T04:04:18;1.70;;;1.60;;
11984;SDS011;6052;53.246;10.368;2023-08-12T04:06:48;2.03;;;1.42;;
11984;SDS011;6052;53.246;10.368;2023-08-12T04:09:19;1.77;;;1.52;;
11984;SDS011;6052;53.246;10.368;2023-08-12T04:11:51;2.55;;;1.58;;
11984;SDS011;6052;53.246;10.368;2023-08-12T04:14:20;2.60;;;1.50;;
11984;SDS011;6052;53.246;10.368;2023-08-12T04:16:50;1.83;;;1.63;;
11984;SDS011;6052;53.246;10.368;2023-08-12T04:19:20;1.60;;;1.45;;
11984;SDS011;6052;53.246;10.368;2023-08-12T04:21:49;2.45;;;1.73;;
11984;SDS011;6052;53.246;10.368;2023-08-12T04:24:19;4.25;;;2.00;;
11984;SDS011;6052;53.246;10.368;2023-08-12T04:26:51;5.45;;;2.00;;
11984;SDS011;6052;53.246;10.368;2023-08-12T04:29:20;2.45;;;1.83;;
11984;SDS011;6052;53.246;10.368;2023-08-12T04:31:50;2.40;;;1.70;;
11984;SDS011;6052;53.246;10.368;2023-08-12T04:34:19;1.92;;;1.73;;
11984;SDS011;6052;53.246;10.368;2023-08-12T04:36:49;3.03;;;1.60;;
11984;SDS011;6052;53.246;10.368;2023-08-12T04:39:18;2.17;;;1.80;;
11984;SDS011;6052;53.246;10.368;2023-08-12T04:41:51;2.10;;;1.88;;
11984;SDS011;6052;53.246;10.368;2023-08-12T04:44:20;3.58;;;1.83;;
11984;SDS011;6052;53.246;10.368;2023-08-12T04:46:50;2.45;;;1.65;;
11984;SDS011;6052;53.246;10.368;2023-08-12T04:49:19;3.85;;;2.03;;
11984;SDS011;6052;53.246;10.368;2023-08-12T04:51:51;1.98;;;1.63;;
11984;SDS011;6052;53.246;10.368;2023-08-12T04:54:20;1.95;;;1.60;;
11984;SDS011;6052;53.246;10.368;2023-08-12T04:56:52;3.17;;;1.50;;
11984;SDS011;6052;53.246;10.368;2023-08-12T04:59:22;2.92;;;2.15;;
11984;SDS011;6052;53.246;10.368;2023-08-12T05:01:52;2.67;;;1.52;;
11984;SDS011;6052;53.246;10.368;2023-08-12T05:04:30;2.85;;;1.92;;
11984;SDS011;6052;53.246;10.368;2023-08-12T05:07:00;2.13;;;1.70;;
11984;SDS011;6052;53.246;10.368;2023-08-12T05:09:29;1.85;;;1.65;;
11984;SDS011;6052;53.246;10.368;2023-08-12T05:12:01;2.53;;;1.65;;
11984;SDS011;6052;53.246;10.368;2023-08-12T05:14:31;1.83;;;1.52;;
11984;SDS011;6052;53.246;10.368;2023-08-12T05:17:00;5.13;;;1.92;;
11984;SDS011;6052;53.246;10.368;2023-08-12T05:19:30;2.90;;;1.85;;
11984;SDS011;6052;53.246;10.368;2023-08-12T05:21:59;1.77;;;1.65;;
11984;SDS011;6052;53.246;10.368;2023-08-12T05:24:29;2.38;;;1.98;;
11984;SDS011;6052;53.246;10.368;2023-08-12T05:26:58;3.28;;;2.00;;
11984;SDS011;6052;53.246;10.368;2023-08-12T05:29:30;2.00;;;1.60;;
11984;SDS011;6052;53.246;10.368;2023-08-12T05:32:00;3.47;;;2.22;;
11984;SDS011;6052;53.246;10.368;2023-08-12T05:34:29;5.50;;;2.00;;
11984;SDS011;6052;53.246;10.368;2023-08-12T05:36:59;2.53;;;1.92;;
11984;SDS011;6052;53.246;10.368;2023-08-12T05:39:28;3.30;;;2.10;;
11984;SDS011;6052;53.246;10.368;2023-08-12T05:41:58;2.00;;;1.77;;
11984;SDS011;6052;53.246;10.368;2023-08-12T05:44:34;2.08;;;1.75;;
11984;SDS011;6052;53.246;10.368;2023-08-12T05:47:03;1.98;;;1.88;;
11984;SDS011;6052;53.246;10.368;2023-08-12T05:49:33;3.65;;;1.90;;
11984;SDS011;6052;53.246;10.368;2023-08-12T05:52:02;3.85;;;1.60;;
11984;SDS011;6052;53.246;10.368;2023-08-12T05:54:33;2.60;;;2.08;;
11984;SDS011;6052;53.246;10.368;2023-08-12T05:57:02;2.67;;;2.20;;
11984;SDS011;6052;53.246;10.368;2023-08-12T05:59:34;4.32;;;2.30;;
11984;SDS011;6052;53.246;10.368;2023-08-12T06:02:04;3.45;;;2.03;;
11984;SDS011;6052;53.246;10.368;2023-08-12T06:04:36;5.13;;;2.20;;
11984;SDS011;6052;53.246;10.368;2023-08-12T06:07:06;4.50;;;2.10;;
11984;SDS011;6052;53.246;10.368;2023-08-12T06:09:36;2.17;;;1.60;;
11984;SDS011;6052;53.246;10.368;2023-08-12T06:12:06;3.03;;;1.98;;
11984;SDS011;6052;53.246;10.368;2023-08-12T06:14:39;3.90;;;1.95;;
11984;SDS011;6052;53.246;10.368;2023-08-12T06:17:09;2.05;;;1.85;;
11984;SDS011;6052;53.246;10.368;2023-08-12T06:19:42;3.83;;;2.28;;
11984;SDS011;6052;53.246;10.368;2023-08-12T06:22:12;3.55;;;1.88;;
11984;SDS011;6052;53.246;10.368;2023-08-12T06:24:42;2.67;;;2.30;;
11984;SDS011;6052;53.246;10.368;2023-08-12T06:27:11;2.67;;;2.20;;
11984;SDS011;6052;53.246;10.368;2023-08-12T06:29:44;5.60;;;2.10;;
11984;SDS011;6052;53.246;10.368;2023-08-12T06:32:13;3.28;;;1.98;;
11984;SDS011;6052;53.246;10.368;2023-08-12T06:34:43;3.60;;;2.10;;
11984;SDS011;6052;53.246;10.368;2023-08-12T06:37:13;7.25;;;2.60;;
11984;SDS011;6052;53.246;10.368;2023-08-12T06:39:42;2.50;;;2.20;;
11984;SDS011;6052;53.246;10.368;2023-08-12T06:42:12;2.80;;;2.13;;
11984;SDS011;6052;53.246;10.368;2023-08-12T06:44:45;4.22;;;2.38;;
11984;SDS011;6052;53.246;10.368;2023-08-12T06:47:14;2.72;;;2.13;;
11984;SDS011;6052;53.246;10.368;2023-08-12T06:49:44;5.65;;;2.47;;
11984;SDS011;6052;53.246;10.368;2023-08-12T06:52:13;3.25;;;2.45;;
11984;SDS011;6052;53.246;10.368;2023-08-12T06:54:43;3.60;;;2.30;;
11984;SDS011;6052;53.246;10.368;2023-08-12T06:57:12;3.05;;;2.55;;
11984;SDS011;6052;53.246;10.368;2023-08-12T06:59:41;2.53;;;2.20;;
11984;SDS011;6052;53.246;10.368;2023-08-12T07:02:13;5.05;;;2.42;;
11984;SDS011;6052;53.246;10.368;2023-08-12T07:04:43;2.42;;;2.13;;
11984;SDS011;6052;53.246;10.368;2023-08-12T07:07:12;3.35;;;2.58;;
11984;SDS011;6052;53.246;10.368;2023-08-12T07:09:42;2.35;;;2.13;;
11984;SDS011;6052;53.246;10.368;2023-08-12T07:12:11;2.92;;;2.63;;
11984;SDS011;6052;53.246;10.368;2023-08-12T07:14:41;5.25;;;2.97;;
11984;SDS011;6052;53.246;10.368;2023-08-12T07:17:13;3.72;;;2.88;;
11984;SDS011;6052;53.246;10.368;2023-08-12T07:19:42;5.93;;;2.60;;
11984;SDS011;6052;53.246;10.368;2023-08-12T07:22:12;5.60;;;3.20;;
11984;SDS011;6052;53.246;10.368;2023-08-12T07:24:44;5.03;;;3.10;;
11984;SDS011;6052;53.246;10.368;2023-08-12T07:27:14;4.20;;;2.92;;
11984;SDS011;6052;53.246;10.368;2023-08-12T07:29:43;5.13;;;3.15;;
11984;SDS011;6052;53.246;10.368;2023-08-12T07:32:15;3.10;;;2.78;;
11984;SDS011;6052;53.246;10.368;2023-08-12T07:34:46;3.13;;;2.55;;
11984;SDS011;6052;53.246;10.368;2023-08-12T07:37:16;4.32;;;3.13;;
11984;SDS011;6052;53.246;10.368;2023-08-12T07:39:45;3.08;;;2.78;;
11984;SDS011;6052;53.246;10.368;2023-08-12T07:42:15;6.63;;;2.90;;
11984;SDS011;6052;53.246;10.368;2023-08-12T07:44:44;4.07;;;2.97;;
11984;SDS011;6052;53.246;10.368;2023-08-12T07:47:16;5.53;;;3.10;;
11984;SDS011;6052;53.246;10.368;2023-08-12T07:49:45;3.55;;;3.05;;
11984;SDS011;6052;53.246;10.368;2023-08-12T07:52:15;2.75;;;2.47;;
11984;SDS011;6052;53.246;10.368;2023-08-12T07:54:44;7.45;;;3.28;;
11984;SDS011;6052;53.246;10.368;2023-08-12T07:57:14;3.72;;;2.88;;
11984;SDS011;6052;53.246;10.368;2023-08-12T07:59:43;4.13;;;2.80;;
11984;SDS011;6052;53.246;10.368;2023-08-12T08:02:12;3.90;;;3.22;;
11984;SDS011;6052;53.246;10.368;2023-08-12T08:04:44;3.53;;;2.95;;
11984;SDS011;6052;53.246;10.368;2023-08-12T08:07:15;3.70;;;3.00;;
11984;SDS011;6052;53.246;10.368;2023-08-12T08:09:45;4.65;;;3.15;;
11984;SDS011;6052;53.246;10.368;2023-08-12T08:12:14;4.35;;;2.75;;
11984;SDS011;6052;53.246;10.368;2023-08-12T08:14:44;4.97;;;3.33;;
11984;SDS011;6052;53.246;10.368;2023-08-12T08:17:13;4.15;;;3.15;;
11984;SDS011;6052;53.246;10.368;2023-08-12T08:19:45;3.83;;;2.80;;
11984;SDS011;6052;53.246;10.368;2023-08-12T08:22:14;4.05;;;3.15;;
11984;SDS011;6052;53.246;10.368;2023-08-12T08:24:44;3.45;;;3.10;;
11984;SDS011;6052;53.246;10.368;2023-08-12T08:27:13;3.33;;;2.92;;
11984;SDS011;6052;53.246;10.368;2023-08-12T08:29:43;5.10;;;3.40;;
11984;SDS011;6052;53.246;10.368;2023-08-12T08:32:12;3.60;;;3.00;;
11984;SDS011;6052;53.246;10.368;2023-08-12T08:34:45;3.42;;;3.00;;
11984;SDS011;6052;53.246;10.368;2023-08-12T08:37:15;5.18;;;3.20;;
11984;SDS011;6052;53.246;10.368;2023-08-12T08:39:44;3.58;;;3.25;;
11984;SDS011;6052;53.246;10.368;2023-08-12T08:42:14;4.90;;;3.80;;
11984;SDS011;6052;53.246;10.368;2023-08-12T08:44:45;3.85;;;3.30;;
11984;SDS011;6052;53.246;10.368;2023-08-12T08:47:19;5.38;;;3.50;;
11984;SDS011;6052;53.246;10.368;2023-08-12T08:49:57;4.32;;;3.40;;
11984;SDS011;6052;53.246;10.368;2023-08-12T08:52:27;4.60;;;3.63;;
11984;SDS011;6052;53.246;10.368;2023-08-12T08:54:58;4.25;;;3.20;;
11984;SDS011;6052;53.246;10.368;2023-08-12T08:57:33;4.35;;;3.00;;
11984;SDS011;6052;53.246;10.368;2023-08-12T09:00:11;4.78;;;3.15;;
11984;SDS011;6052;53.246;10.368;2023-08-12T09:02:44;5.93;;;3.58;;
11984;SDS011;6052;53.246;10.368;2023-08-12T09:05:17;5.20;;;4.03;;
11984;SDS011;6052;53.246;10.368;2023-08-12T09:07:48;5.35;;;3.35;;
11984;SDS011;6052;53.246;10.368;2023-08-12T09:10:19;4.38;;;3.40;;
11984;SDS011;6052;53.246;10.368;2023-08-12T09:12:54;5.00;;;4.15;;
11984;SDS011;6052;53.246;10.368;2023-08-12T09:15:25;6.47;;;4.25;;
11984;SDS011;6052;53.246;10.368;2023-08-12T09:17:54;7.82;;;3.78;;
11984;SDS011;6052;53.246;10.368;2023-08-12T09:20:27;5.20;;;3.78;;
11984;SDS011;6052;53.246;10.368;2023-08-12T09:22:56;6.68;;;4.10;;
11984;SDS011;6052;53.246;10.368;2023-08-12T09:25:27;6.22;;;3.78;;
11984;SDS011;6052;53.246;10.368;2023-08-12T09:27:58;4.55;;;3.13;;
11984;SDS011;6052;53.246;10.368;2023-08-12T09:30:28;4.75;;;4.07;;
11984;SDS011;6052;53.246;10.368;2023-08-12T09:32:59;5.03;;;3.70;;
11984;SDS011;6052;53.246;10.368;2023-08-12T09:35:34;5.80;;;3.30;;
11984;SDS011;6052;53.246;10.368;2023-08-12T09:38:05;4.82;;;3.50;;
11984;SDS011;6052;53.246;10.368;2023-08-12T09:40:36;4.43;;;3.35;;
11984;SDS011;6052;53.246;10.368;2023-08-12T09:43:06;7.93;;;4.00;;
11984;SDS011;6052;53.246;10.368;2023-08-12T09:45:36;5.30;;;3.72;;
11984;SDS011;6052;53.246;10.368;2023-08-12T09:48:06;4.25;;;3.50;;
11984;SDS011;6052;53.246;10.368;2023-08-12T09:50:39;5.30;;;3.80;;
11984;SDS011;6052;53.246;10.368;2023-08-12T09:53:09;5.70;;;3.92;;
11984;SDS011;6052;53.246;10.368;2023-08-12T09:55:38;4.25;;;3.63;;
11984;SDS011;6052;53.246;10.368;2023-08-12T09:58:09;5.28;;;4.10;;
11984;SDS011;6052;53.246;10.368;2023-08-12T10:00:39;6.40;;;4.03;;
11984;SDS011;6052;53.246;10.368;2023-08-12T10:03:12;6.53;;;3.35;;
11984;SDS011;6052;53.246;10.368;2023-08-12T10:05:46;3.90;;;3.42;;
11984;SDS011;6052;53.246;10.368;2023-08-12T10:08:16;5.65;;;3.83;;
11984;SDS011;6052;53.246;10.368;2023-08-12T10:10:47;4.80;;;3.33;;
11984;SDS011;6052;53.246;10.368;2023-08-12T10:13:32;8.52;;;3.60;;
11984;SDS011;6052;53.246;10.368;2023-08-12T10:16:02;6.03;;;4.13;;
11984;SDS011;6052;53.246;10.368;2023-08-12T10:18:32;4.03;;;3.35;;
11984;SDS011;6052;53.246;10.368;2023-08-12T10:21:07;4.03;;;3.30;;
11984;SDS011;6052;53.246;10.368;2023-08-12T10:23:40;5.03;;;3.47;;
11984;SDS011;6052;53.246;10.368;2023-08-12T10:26:13;5.28;;;3.67;;
11984;SDS011;6052;53.246;10.368;2023-08-12T10:28:44;3.55;;;2.95;;
11984;SDS011;6052;53.246;10.368;2023-08-12T10:31:17;7.85;;;3.35;;
11984;SDS011;6052;53.246;10.368;2023-08-12T10:33:48;4.10;;;3.30;;
11984;SDS011;6052;53.246;10.368;2023-08-12T10:36:20;5.32;;;3.47;;
11984;SDS011;6052;53.246;10.368;2023-08-12T10:38:50;3.25;;;2.70;;
11984;SDS011;6052;53.246;10.368;2023-08-12T10:41:20;5.50;;;3.92;;
11984;SDS011;6052;53.246;10.368;2023-08-12T10:43:54;7.72;;;3.97;;
11984;SDS011;6052;53.246;10.368;2023-08-12T10:46:28;3.80;;;3.28;;
11984;SDS011;6052;53.246;10.368;2023-08-12T10:49:02;7.00;;;4.00;;
11984;SDS011;6052;53.246;10.368;2023-08-12T10:54:26;5.30;;;4.07;;
11984;SDS011;6052;53.246;10.368;2023-08-12T10:57:03;4.72;;;3.42;;
11984;SDS011;6052;53.246;10.368;2023-08-12T11:02:17;3.83;;;3.22;;
11984;SDS011;6052;53.246;10.368;2023-08-12T11:04:54;4.28;;;3.67;;
11984;SDS011;6052;53.246;10.368;2023-08-12T11:07:32;4.45;;;3.30;;
11984;SDS011;6052;53.246;10.368;2023-08-12T11:10:09;4.40;;;3.70;;
11984;SDS011;6052;53.246;10.368;2023-08-12T11:12:41;5.68;;;3.28;;
11984;SDS011;6052;53.246;10.368;2023-08-12T11:15:14;3.97;;;3.58;;
11984;SDS011;6052;53.246;10.368;2023-08-12T11:17:45;4.80;;;3.33;;
11984;SDS011;6052;53.246;10.368;2023-08-12T11:20:15;7.22;;;3.55;;
11984;SDS011;6052;53.246;10.368;2023-08-12T11:22:48;7.75;;;3.58;;
11984;SDS011;6052;53.246;10.368;2023-08-12T11:25:19;5.82;;;4.13;;
11984;SDS011;6052;53.246;10.368;2023-08-12T11:27:49;4.55;;;3.42;;
11984;SDS011;6052;53.246;10.368;2023-08-12T11:30:19;4.10;;;3.55;;
11984;SDS011;6052;53.246;10.368;2023-08-12T11:32:50;5.28;;;3.67;;
11984;SDS011;6052;53.246;10.368;2023-08-12T11:35:21;4.88;;;3.75;;
11984;SDS011;6052;53.246;10.368;2023-08-12T11:37:55;4.38;;;3.78;;
11984;SDS011;6052;53.246;10.368;2023-08-12T11:40:26;7.18;;;4.03;;
11984;SDS011;6052;53.246;10.368;2023-08-12T11:42:56;5.00;;;3.90;;
11984;SDS011;6052;53.246;10.368;2023-08-12T11:45:26;4.30;;;3.40;;
11984;SDS011;6052;53.246;10.368;2023-08-12T11:47:56;5.53;;;3.90;;
11984;SDS011;6052;53.246;10.368;2023-08-12T11:50:26;4.57;;;3.60;;
11984;SDS011;6052;53.246;10.368;2023-08-12T11:52:59;5.85;;;3.42;;
11984;SDS011;6052;53.246;10.368;2023-08-12T11:55:28;5.78;;;3.67;;
11984;SDS011;6052;53.246;10.368;2023-08-12T11:57:58;5.70;;;3.63;;
11984;SDS011;6052;53.246;10.368;2023-08-12T12:00:28;4.30;;;3.63;;
11984;SDS011;6052;53.246;10.368;2023-08-12T12:02:58;5.75;;;3.72;;
11984;SDS011;6052;53.246;10.368;2023-08-12T12:05:29;6.75;;;3.83;;
11984;SDS011;6052;53.246;10.368;2023-08-12T12:08:04;4.95;;;3.70;;
11984;SDS011;6052;53.246;10.368;2023-08-12T12:10:36;5.40;;;3.88;;
11984;SDS011;6052;53.246;10.368;2023-08-12T12:13:05;4.28;;;3.53;;
11984;SDS011;6052;53.246;10.368;2023-08-12T12:15:37;5.30;;;3.75;;
11984;SDS011;6052;53.246;10.368;2023-08-12T12:18:09;5.47;;;4.18;;
11984;SDS011;6052;53.246;10.368;2023-08-12T12:20:53;5.68;;;3.90;;
11984;SDS011;6052;53.246;10.368;2023-08-12T12:23:29;5.85;;;4.07;;
11984;SDS011;6052;53.246;10.368;2023-08-12T12:26:00;6.50;;;4.47;;
11984;SDS011;6052;53.246;10.368;2023-08-12T12:28:31;6.38;;;4.00;;
11984;SDS011;6052;53.246;10.368;2023-08-12T12:31:00;6.38;;;4.45;;
11984;SDS011;6052;53.246;10.368;2023-08-12T12:33:29;6.82;;;4.47;;
11984;SDS011;6052;53.246;10.368;2023-08-12T12:35:59;5.20;;;4.30;;
11984;SDS011;6052;53.246;10.368;2023-08-12T12:38:33;5.45;;;4.13;;
11984;SDS011;6052;53.246;10.368;2023-08-12T12:41:02;5.82;;;4.30;;
11984;SDS011;6052;53.246;10.368;2023-08-12T12:43:32;6.30;;;4.43;;
11984;SDS011;6052;53.246;10.368;2023-08-12T12:46:01;6.55;;;4.47;;
11984;SDS011;6052;53.246;10.368;2023-08-12T12:48:31;4.30;;;3.80;;
11984;SDS011;6052;53.246;10.368;2023-08-12T12:51:00;6.55;;;3.70;;
11984;SDS011;6052;53.246;10.368;2023-08-12T12:53:32;5.35;;;3.70;;
11984;SDS011;6052;53.246;10.368;2023-08-12T12:56:02;4.68;;;3.92;;
11984;SDS011;6052;53.246;10.368;2023-08-12T12:58:32;4.65;;;4.00;;
11984;SDS011;6052;53.246;10.368;2023-08-12T13:01:03;4.10;;;3.67;;
11984;SDS011;6052;53.246;10.368;2023-08-12T13:03:33;3.75;;;3.22;;
11984;SDS011;6052;53.246;10.368;2023-08-12T13:06:04;5.55;;;3.55;;
11984;SDS011;6052;53.246;10.368;2023-08-12T13:08:37;5.40;;;3.55;;
11984;SDS011;6052;53.246;10.368;2023-08-12T13:11:06;6.35;;;3.08;;
11984;SDS011;6052;53.246;10.368;2023-08-12T13:13:36;4.30;;;3.55;;
11984;SDS011;6052;53.246;10.368;2023-08-12T13:16:05;6.70;;;3.58;;
11984;SDS011;6052;53.246;10.368;2023-08-12T13:18:35;4.63;;;3.20;;
11984;SDS011;6052;53.246;10.368;2023-08-12T13:21:05;10.55;;;3.40;;
11984;SDS011;6052;53.246;10.368;2023-08-12T13:23:37;4.32;;;3.40;;
11984;SDS011;6052;53.246;10.368;2023-08-12T13:26:06;3.53;;;3.20;;
11984;SDS011;6052;53.246;10.368;2023-08-12T13:28:36;3.95;;;3.30;;
11984;SDS011;6052;53.246;10.368;2023-08-12T13:31:05;4.97;;;3.00;;
11984;SDS011;6052;53.246;10.368;2023-08-12T13:33:35;3.53;;;3.22;;
11984;SDS011;6052;53.246;10.368;2023-08-12T13:36:04;5.15;;;3.40;;
11984;SDS011;6052;53.246;10.368;2023-08-12T13:38:36;3.60;;;3.15;;
11984;SDS011;6052;53.246;10.368;2023-08-12T13:41:06;4.32;;;3.20;;
11984;SDS011;6052;53.246;10.368;2023-08-12T13:43:35;4.75;;;3.45;;
11984;SDS011;6052;53.246;10.368;2023-08-12T13:46:05;4.90;;;3.22;;
11984;SDS011;6052;53.246;10.368;2023-08-12T13:48:35;3.35;;;3.03;;
11984;SDS011;6052;53.246;10.368;2023-08-12T13:51:04;3.75;;;3.22;;
11984;SDS011;6052;53.246;10.368;2023-08-12T13:53:33;5.13;;;3.05;;
11984;SDS011;6052;53.246;10.368;2023-08-12T13:56:05;3.33;;;3.03;;
11984;SDS011;6052;53.246;10.368;2023-08-12T13:58:35;5.78;;;3.15;;
11984;SDS011;6052;53.246;10.368;2023-08-12T14:01:05;4.95;;;3.03;;
11984;SDS011;6052;53.246;10.368;2023-08-12T14:03:35;7.18;;;3.70;;
11984;SDS011;6052;53.246;10.368;2023-08-12T14:06:04;3.25;;;2.95;;
11984;SDS011;6052;53.246;10.368;2023-08-12T14:08:36;4.65;;;2.92;;
11984;SDS011;6052;53.246;10.368;2023-08-12T14:11:06;5.35;;;3.40;;
11984;SDS011;6052;53.246;10.368;2023-08-12T14:13:35;4.32;;;2.90;;
11984;SDS011;6052;53.246;10.368;2023-08-12T14:16:05;3.83;;;3.00;;
11984;SDS011;6052;53.246;10.368;2023-08-12T14:18:34;3.97;;;2.88;;
11984;SDS011;6052;53.246;10.368;2023-08-12T14:21:04;3.05;;;2.70;;
11984;SDS011;6052;53.246;10.368;2023-08-12T14:23:33;3.70;;;3.00;;
11984;SDS011;6052;53.246;10.368;2023-08-12T14:26:05;3.80;;;2.85;;
11984;SDS011;6052;53.246;10.368;2023-08-12T14:28:35;7.25;;;3.33;;
11984;SDS011;6052;53.246;10.368;2023-08-12T14:31:04;8.93;;;3.67;;
11984;SDS011;6052;53.246;10.368;2023-08-12T14:33:34;5.05;;;3.35;;
11984;SDS011;6052;53.246;10.368;2023-08-12T14:36:04;6.25;;;3.90;;
11984;SDS011;6052;53.246;10.368;2023-08-12T14:38:34;7.35;;;5.20;;
11984;SDS011;6052;53.246;10.368;2023-08-12T14:41:06;6.75;;;4.93;;
11984;SDS011;6052;53.246;10.368;2023-08-12T14:43:36;6.53;;;5.05;;
11984;SDS011;6052;53.246;10.368;2023-08-12T14:46:05;6.72;;;5.00;;
11984;SDS011;6052;53.246;10.368;2023-08-12T14:48:35;8.80;;;5.32;;
11984;SDS011;6052;53.246;10.368;2023-08-12T14:51:04;5.78;;;4.55;;
11984;SDS011;6052;53.246;10.368;2023-08-12T14:53:34;4.88;;;3.92;;
11984;SDS011;6052;53.246;10.368;2023-08-12T14:56:06;4.82;;;3.75;;
11984;SDS011;6052;53.246;10.368;2023-08-12T14:58:36;4.03;;;3.42;;
11984;SDS011;6052;53.246;10.368;2023-08-12T15:01:05;4.28;;;3.40;;
11984;SDS011;6052;53.246;10.368;2023-08-12T15:03:35;3.72;;;3.13;;
11984;SDS011;6052;53.246;10.368;2023-08-12T15:06:05;8.80;;;3.35;;
11984;SDS011;6052;53.246;10.368;2023-08-12T15:08:34;4.57;;;3.35;;
11984;SDS011;6052;53.246;10.368;2023-08-12T15:11:06;3.92;;;3.25;;
11984;SDS011;6052;53.246;10.368;2023-08-12T15:13:36;5.55;;;3.65;;